createdAt,value
2019-05-23T00:00:33.822Z,10.49
2019-05-23T00:01:35.846Z,10.51
2019-05-23T00:02:36.250Z,10.41
2019-05-23T00:03:34.178Z,10.35
2019-05-23T00:04:35.798Z,10.49
2019-05-23T00:05:36.064Z,10.56
2019-05-23T00:06:35.148Z,10.56
2019-05-23T00:07:36.299Z,10.57
2019-05-23T00:08:36.738Z,10.64
2019-05-23T00:09:36.551Z,10.51
2019-05-23T00:10:37.537Z,10.56
2019-05-23T00:11:39.661Z,10.48
2019-05-23T00:12:37.183Z,10.49
2019-05-23T00:13:36.196Z,10.61
2019-05-23T00:14:37.152Z,10.56
2019-05-23T00:15:36.757Z,10.49
2019-05-23T00:16:36.559Z,10.44
2019-05-23T00:17:36.504Z,10.59
2019-05-23T00:18:38.092Z,10.54
2019-05-23T00:19:39.181Z,10.51
2019-05-23T00:20:39.742Z,10.53
2019-05-23T00:21:39.343Z,10.57
2019-05-23T00:22:39.778Z,10.35
2019-05-23T00:23:39.516Z,10.46
2019-05-23T00:24:39.178Z,10.48
2019-05-23T00:25:39.676Z,10.42
2019-05-23T00:26:40.138Z,10.53
2019-05-23T00:27:40.613Z,10.46
2019-05-23T00:28:39.985Z,10.40
2019-05-23T00:29:40.749Z,10.37
2019-05-23T00:30:41.205Z,10.35
2019-05-23T00:31:40.654Z,10.34
2019-05-23T00:32:41.182Z,10.30
2019-05-23T00:33:41.022Z,10.30
2019-05-23T00:34:41.678Z,10.26
2019-05-23T00:35:41.550Z,10.25
2019-05-23T00:36:42.222Z,10.30
2019-05-23T00:37:41.787Z,10.38
2019-05-23T00:38:41.403Z,10.31
2019-05-23T00:39:42.134Z,10.38
2019-05-23T00:40:41.891Z,10.42
2019-05-23T00:41:42.287Z,10.38
2019-05-23T00:42:42.823Z,10.44
2019-05-23T00:43:43.344Z,10.46
2019-05-23T00:44:43.196Z,10.41
2019-05-23T00:45:43.132Z,10.38
2019-05-23T00:46:43.214Z,10.40
2019-05-23T00:47:42.428Z,10.40
2019-05-23T00:48:43.219Z,10.41
2019-05-23T00:49:44.840Z,10.34
2019-05-23T00:50:42.850Z,10.35
2019-05-23T00:51:43.354Z,10.44
2019-05-23T00:52:44.484Z,10.35
2019-05-23T00:53:43.518Z,10.46
2019-05-23T00:54:44.167Z,10.51
2019-05-23T00:55:45.005Z,10.48
2019-05-23T00:56:45.095Z,10.33
2019-05-23T00:57:44.731Z,10.44
2019-05-23T00:58:46.266Z,10.49
2019-05-23T00:59:45.818Z,10.44
2019-05-23T01:00:46.055Z,10.37
2019-05-23T01:01:45.567Z,10.49
2019-05-23T01:02:45.635Z,10.46
2019-05-23T01:03:46.820Z,10.38
2019-05-23T01:04:46.190Z,10.33
2019-05-23T01:05:46.549Z,10.34
2019-05-23T01:06:46.839Z,10.37
2019-05-23T01:07:45.729Z,10.46
2019-05-23T01:08:46.855Z,10.49
2019-05-23T01:09:47.939Z,10.48
2019-05-23T01:10:47.202Z,10.44
2019-05-23T01:11:47.224Z,10.49
2019-05-23T01:12:48.391Z,10.51
2019-05-23T01:13:46.889Z,10.53
2019-05-23T01:14:48.250Z,10.49
2019-05-23T01:15:48.628Z,10.48
2019-05-23T01:16:48.879Z,10.51
2019-05-23T01:17:47.369Z,10.42
2019-05-23T01:18:47.322Z,10.49
2019-05-23T01:19:49.683Z,10.53
2019-05-23T01:20:48.245Z,10.53
2019-05-23T01:21:49.167Z,10.63
2019-05-23T01:22:48.729Z,10.63
2019-05-23T01:23:49.531Z,10.63
2019-05-23T01:24:48.037Z,10.69
2019-05-23T01:25:49.688Z,10.64
2019-05-23T01:26:50.797Z,10.72
2019-05-23T01:27:50.301Z,10.59
2019-05-23T01:28:50.154Z,10.61
2019-05-23T01:29:50.613Z,10.56
2019-05-23T01:30:51.339Z,10.53
2019-05-23T01:31:51.207Z,10.68
2019-05-23T01:32:51.247Z,10.68
2019-05-23T01:33:51.905Z,10.68
2019-05-23T01:34:51.310Z,10.68
2019-05-23T01:35:51.619Z,10.56
2019-05-23T01:36:51.995Z,10.48
2019-05-23T01:37:52.247Z,10.49
2019-05-23T01:38:51.915Z,10.53
2019-05-23T01:39:49.594Z,10.46
2019-05-23T01:40:51.500Z,10.42
2019-05-23T01:41:52.936Z,10.44
2019-05-23T01:42:52.050Z,10.30
2019-05-23T01:43:51.484Z,10.25
2019-05-23T01:44:52.059Z,10.33
2019-05-23T01:45:50.870Z,10.33
2019-05-23T01:46:51.029Z,10.34
2019-05-23T01:47:51.133Z,10.35
2019-05-23T01:48:52.534Z,10.38
2019-05-23T01:49:52.830Z,10.46
2019-05-23T01:50:52.163Z,10.35
2019-05-23T01:51:54.049Z,10.41
2019-05-23T01:52:54.860Z,10.51
2019-05-23T01:53:53.133Z,10.42
2019-05-23T01:54:53.962Z,10.56
2019-05-23T01:55:54.464Z,10.53
2019-05-23T01:56:53.562Z,10.46
2019-05-23T01:57:54.584Z,10.38
2019-05-23T01:58:54.108Z,10.37
2019-05-23T02:00:08.176Z,10.38
2019-05-23T02:00:54.418Z,10.37
2019-05-23T02:01:56.442Z,10.33
2019-05-23T02:02:54.952Z,10.34
2019-05-23T02:03:53.695Z,10.41
2019-05-23T02:04:56.631Z,10.51
2019-05-23T02:05:54.916Z,10.44
2019-05-23T02:06:54.352Z,10.46
2019-05-23T02:07:55.761Z,10.37
2019-05-23T02:08:56.559Z,10.48
2019-05-23T02:09:55.706Z,10.38
2019-05-23T02:10:55.128Z,10.34
2019-05-23T02:11:55.885Z,10.34
2019-05-23T02:12:56.018Z,10.28
2019-05-23T02:13:56.208Z,10.35
2019-05-23T02:14:56.819Z,10.33
2019-05-23T02:15:55.733Z,10.31
2019-05-23T02:16:56.841Z,10.22
2019-05-23T02:17:58.657Z,10.23
2019-05-23T02:18:58.006Z,10.31
2019-05-23T02:19:55.617Z,10.33
2019-05-23T02:20:55.858Z,10.37
2019-05-23T02:21:58.540Z,10.48
2019-05-23T02:22:55.020Z,10.26
2019-05-23T02:23:55.184Z,10.31
2019-05-23T02:24:55.357Z,10.34
2019-05-23T02:25:56.778Z,10.37
2019-05-23T02:26:56.869Z,10.31
2019-05-23T02:27:58.804Z,10.35
2019-05-23T02:28:57.968Z,10.33
2019-05-23T02:29:57.033Z,10.34
2019-05-23T02:30:58.962Z,10.28
2019-05-23T02:31:56.639Z,10.28
2019-05-23T02:32:58.840Z,10.30
2019-05-23T02:33:59.924Z,10.34
2019-05-23T02:34:57.198Z,10.30
2019-05-23T02:36:00.273Z,10.33
2019-05-23T02:37:01.402Z,10.22
2019-05-23T02:37:59.233Z,10.22
2019-05-23T02:38:59.591Z,10.28
2019-05-23T02:39:59.189Z,10.26
2019-05-23T02:40:59.631Z,10.16
2019-05-23T02:41:58.389Z,10.13
2019-05-23T02:42:59.607Z,10.25
2019-05-23T02:44:00.541Z,10.25
2019-05-23T02:45:02.060Z,10.23
2019-05-23T02:45:59.662Z,10.13
2019-05-23T02:46:59.488Z,10.12
2019-05-23T02:47:59.643Z,10.23
2019-05-23T02:48:59.965Z,10.25
2019-05-23T02:50:00.021Z,10.16
2019-05-23T02:51:00.435Z,10.10
2019-05-23T02:52:00.417Z,10.23
2019-05-23T02:53:04.464Z,10.19
2019-05-23T02:54:03.738Z,10.26
2019-05-23T02:55:02.290Z,10.30
2019-05-23T02:56:02.113Z,10.30
2019-05-23T02:57:05.096Z,10.30
2019-05-23T02:58:03.892Z,10.28
2019-05-23T02:59:04.653Z,10.31
2019-05-23T03:00:03.689Z,10.31
2019-05-23T03:01:04.802Z,10.41
2019-05-23T03:02:05.292Z,10.28
2019-05-23T03:03:05.185Z,10.33
2019-05-23T03:04:04.324Z,10.31
2019-05-23T03:05:04.773Z,10.34
2019-05-23T03:06:03.925Z,10.28
2019-05-23T03:07:02.785Z,10.20
2019-05-23T03:08:05.694Z,10.16
2019-05-23T03:09:06.401Z,10.16
2019-05-23T03:10:07.217Z,10.23
2019-05-23T03:11:06.093Z,10.19
2019-05-23T03:12:07.088Z,10.16
2019-05-23T03:13:07.759Z,10.12
2019-05-23T03:14:03.545Z,10.20
2019-05-23T03:15:07.719Z,10.17
2019-05-23T03:16:03.841Z,10.22
2019-05-23T03:17:08.246Z,10.23
2019-05-23T03:18:05.242Z,10.15
2019-05-23T03:19:08.139Z,10.20
2019-05-23T03:20:08.743Z,10.12
2019-05-23T03:21:08.443Z,10.17
2019-05-23T03:22:09.355Z,10.09
2019-05-23T03:23:09.002Z,10.25
2019-05-23T03:24:09.249Z,10.22
2019-05-23T03:25:10.249Z,10.25
2019-05-23T03:26:09.252Z,10.23
2019-05-23T03:27:05.518Z,10.16
2019-05-23T03:28:06.495Z,10.22
2019-05-23T03:29:08.734Z,10.19
2019-05-23T03:30:09.193Z,10.22
2019-05-23T03:31:27.416Z,10.28
2019-05-23T03:32:09.545Z,10.23
2019-05-23T03:33:06.356Z,10.28
2019-05-23T03:34:08.213Z,10.19
2019-05-23T03:35:10.721Z,10.19
2019-05-23T03:36:09.753Z,10.16
2019-05-23T03:37:13.847Z,10.15
2019-05-23T03:38:07.199Z,10.17
2019-05-23T03:39:07.372Z,10.19
2019-05-23T03:40:11.737Z,10.22
2019-05-23T03:41:11.247Z,10.19
2019-05-23T03:42:09.924Z,10.16
2019-05-23T03:43:10.360Z,10.16
2019-05-23T03:44:11.288Z,10.19
2019-05-23T03:45:11.417Z,10.22
2019-05-23T03:46:10.060Z,10.12
2019-05-23T03:47:10.589Z,10.16
2019-05-23T03:48:12.176Z,10.19
2019-05-23T03:49:13.516Z,10.16
2019-05-23T03:50:11.572Z,10.17
2019-05-23T03:51:11.755Z,10.16
2019-05-23T03:52:13.780Z,10.17
2019-05-23T03:53:10.110Z,10.16
2019-05-23T03:54:10.031Z,10.19
2019-05-23T03:55:14.143Z,10.17
2019-05-23T03:56:14.299Z,10.02
2019-05-23T03:57:13.893Z,10.16
2019-05-23T03:58:14.034Z,10.16
2019-05-23T03:59:14.696Z,10.20
2019-05-23T04:00:10.633Z,10.23
2019-05-23T04:01:10.818Z,10.12
2019-05-23T04:02:15.049Z,10.23
2019-05-23T04:03:13.055Z,10.20
2019-05-23T04:04:13.983Z,10.26
2019-05-23T04:05:16.349Z,10.22
2019-05-23T04:06:15.087Z,10.15
2019-05-23T04:07:15.149Z,10.23
2019-05-23T04:08:16.105Z,10.17
2019-05-23T04:09:16.113Z,10.16
2019-05-23T04:10:14.392Z,10.17
2019-05-23T04:11:14.907Z,10.15
2019-05-23T04:12:12.772Z,10.16
2019-05-23T04:13:16.115Z,10.30
2019-05-23T04:14:17.957Z,10.25
2019-05-23T04:15:18.860Z,10.34
2019-05-23T04:16:17.196Z,10.35
2019-05-23T04:17:17.174Z,10.26
2019-05-23T04:18:17.538Z,10.26
2019-05-23T04:19:13.956Z,10.38
2019-05-23T04:20:18.194Z,10.33
2019-05-23T04:21:18.783Z,10.42
2019-05-23T04:22:16.283Z,10.40
2019-05-23T04:23:16.110Z,10.54
2019-05-23T04:24:18.607Z,10.49
2019-05-23T04:25:17.665Z,10.54
2019-05-23T04:26:19.132Z,10.57
2019-05-23T04:27:17.365Z,10.64
2019-05-23T04:28:19.283Z,10.64
2019-05-23T04:29:19.546Z,10.61
2019-05-23T04:30:20.439Z,10.59
2019-05-23T04:31:21.137Z,10.56
2019-05-23T04:32:20.346Z,10.51
2019-05-23T04:33:16.275Z,10.42
2019-05-23T04:34:20.051Z,10.38
2019-05-23T04:35:19.821Z,10.44
2019-05-23T04:36:19.290Z,10.53
2019-05-23T04:37:20.707Z,10.46
2019-05-23T04:38:20.600Z,10.35
2019-05-23T04:39:19.482Z,10.38
2019-05-23T04:40:18.933Z,10.41
2019-05-23T04:41:19.991Z,10.37
2019-05-23T04:42:18.791Z,10.44
2019-05-23T04:43:20.226Z,10.51
2019-05-23T04:44:19.296Z,10.54
2019-05-23T04:45:20.648Z,10.34
2019-05-23T04:46:21.725Z,10.40
2019-05-23T04:47:18.487Z,10.42
2019-05-23T04:48:19.898Z,10.37
2019-05-23T04:49:18.765Z,10.42
2019-05-23T04:50:23.267Z,10.34
2019-05-23T04:51:22.904Z,10.30
2019-05-23T04:52:23.549Z,10.30
2019-05-23T04:53:22.396Z,10.33
2019-05-23T04:54:22.173Z,10.38
2019-05-23T04:55:21.637Z,10.35
2019-05-23T04:56:22.450Z,10.35
2019-05-23T04:57:21.544Z,10.37
2019-05-23T04:58:23.416Z,10.35
2019-05-23T04:59:23.799Z,10.46
2019-05-23T05:00:22.060Z,10.41
2019-05-23T05:01:22.608Z,10.46
2019-05-23T05:02:26.312Z,10.40
2019-05-23T05:03:22.470Z,10.31
2019-05-23T05:04:21.102Z,10.37
2019-05-23T05:05:24.314Z,10.38
2019-05-23T05:06:22.974Z,10.33
2019-05-23T05:07:23.595Z,10.26
2019-05-23T05:08:23.289Z,10.28
2019-05-23T05:09:21.886Z,10.38
2019-05-23T05:10:24.061Z,10.35
2019-05-23T05:11:30.188Z,10.41
2019-05-23T05:12:22.336Z,10.44
2019-05-23T05:13:23.408Z,10.49
2019-05-23T05:14:23.258Z,10.60
2019-05-23T05:15:24.628Z,10.67
2019-05-23T05:16:24.439Z,10.67
2019-05-23T05:17:25.290Z,10.74
2019-05-23T05:18:25.378Z,10.71
2019-05-23T05:19:24.963Z,10.79
2019-05-23T05:20:24.255Z,10.87
2019-05-23T05:21:25.307Z,10.90
2019-05-23T05:22:25.587Z,10.96
2019-05-23T05:23:24.626Z,10.94
2019-05-23T05:24:26.130Z,10.90
2019-05-23T05:25:25.541Z,10.97
2019-05-23T05:26:25.485Z,10.94
2019-05-23T05:27:26.339Z,11.11
2019-05-23T05:28:26.562Z,11.12
2019-05-23T05:29:26.370Z,11.17
2019-05-23T05:30:25.366Z,11.17
2019-05-23T05:31:25.934Z,11.23
2019-05-23T05:32:41.448Z,11.19
2019-05-23T05:33:26.676Z,11.19
2019-05-23T05:34:26.827Z,11.26
2019-05-23T05:35:27.259Z,11.23
2019-05-23T05:36:26.262Z,11.26
2019-05-23T05:37:27.391Z,11.36
2019-05-23T05:38:28.919Z,11.40
2019-05-23T05:39:28.884Z,11.50
2019-05-23T05:40:27.420Z,11.52
2019-05-23T05:41:28.835Z,11.50
2019-05-23T05:42:28.209Z,11.66
2019-05-23T05:43:28.617Z,11.68
2019-05-23T05:44:29.056Z,11.60
2019-05-23T05:45:30.049Z,11.75
2019-05-23T05:46:30.143Z,11.72
2019-05-23T05:47:31.023Z,11.73
2019-05-23T05:48:29.549Z,11.87
2019-05-23T05:49:31.351Z,11.73
2019-05-23T05:50:33.113Z,11.73
2019-05-23T05:51:30.013Z,11.70
2019-05-23T05:52:28.668Z,11.70
2019-05-23T05:53:29.866Z,11.77
2019-05-23T05:54:32.355Z,11.86
2019-05-23T05:55:32.100Z,11.75
2019-05-23T05:56:32.252Z,11.86
2019-05-23T05:57:29.620Z,12.02
2019-05-23T05:58:29.818Z,11.99
2019-05-23T05:59:30.021Z,12.17
2019-05-23T06:00:30.195Z,12.10
2019-05-23T06:01:33.841Z,12.27
2019-05-23T06:02:30.835Z,12.43
2019-05-23T06:03:30.710Z,12.53
2019-05-23T06:04:30.907Z,12.64
2019-05-23T06:05:31.088Z,12.68
2019-05-23T06:06:31.297Z,12.86
2019-05-23T06:07:31.462Z,12.91
2019-05-23T06:08:31.626Z,12.98
2019-05-23T06:09:31.786Z,12.98
2019-05-23T06:10:31.981Z,12.95
2019-05-23T06:11:32.177Z,12.95
2019-05-23T06:12:32.347Z,13.00
2019-05-23T06:13:32.565Z,13.04
2019-05-23T06:14:32.719Z,12.93
2019-05-23T06:15:32.944Z,12.97
2019-05-23T06:16:33.073Z,12.95
2019-05-23T06:17:33.125Z,12.91
2019-05-23T06:18:33.306Z,12.90
2019-05-23T06:19:33.494Z,13.00
2019-05-23T06:20:33.667Z,12.90
2019-05-23T06:21:33.845Z,13.00
2019-05-23T06:22:34.012Z,13.18
2019-05-23T06:23:34.170Z,13.15
2019-05-23T06:24:43.995Z,13.18
2019-05-23T06:25:34.516Z,13.35
2019-05-23T06:26:34.675Z,13.57
2019-05-23T06:27:34.841Z,13.65
2019-05-23T06:28:35.010Z,13.75
2019-05-23T06:29:35.167Z,13.97
2019-05-23T06:30:35.788Z,14.20
2019-05-23T06:31:35.468Z,14.25
2019-05-23T06:32:35.667Z,14.33
2019-05-23T06:33:35.836Z,14.45
2019-05-23T06:34:36.011Z,14.44
2019-05-23T06:35:36.189Z,14.43
2019-05-23T06:36:36.353Z,14.40
2019-05-23T06:37:36.541Z,14.63
2019-05-23T06:38:36.700Z,14.73
2019-05-23T06:39:36.883Z,14.77
2019-05-23T06:40:37.075Z,14.81
2019-05-23T06:41:37.217Z,14.88
2019-05-23T06:42:37.382Z,14.78
2019-05-23T06:43:37.554Z,14.89
2019-05-23T06:44:37.720Z,14.97
2019-05-23T06:45:37.918Z,15.14
2019-05-23T06:46:38.097Z,15.27
2019-05-23T06:47:38.239Z,15.39
2019-05-23T06:48:38.419Z,15.46
2019-05-23T06:49:38.592Z,15.57
2019-05-23T06:50:38.771Z,15.70
2019-05-23T06:51:38.930Z,15.76
2019-05-23T06:52:39.118Z,15.91
2019-05-23T06:53:39.338Z,16.02
2019-05-23T06:54:39.492Z,16.13
2019-05-23T06:55:39.677Z,16.28
2019-05-23T06:56:39.840Z,16.39
2019-05-23T06:57:40.009Z,16.51
2019-05-23T06:58:40.212Z,16.41
2019-05-23T06:59:40.349Z,16.60
2019-05-23T07:00:40.654Z,16.78
2019-05-23T07:01:40.689Z,16.97
2019-05-23T07:02:40.857Z,17.11
2019-05-23T07:03:43.452Z,16.99
2019-05-23T07:04:41.199Z,17.12
2019-05-23T07:05:41.376Z,17.42
2019-05-23T07:06:41.545Z,17.54
2019-05-23T07:07:41.712Z,17.79
2019-05-23T07:08:41.881Z,17.87
2019-05-23T07:09:42.057Z,17.98
2019-05-23T07:10:42.357Z,18.11
2019-05-23T07:11:46.178Z,18.23
2019-05-23T07:12:46.378Z,18.33
2019-05-23T07:13:46.202Z,18.44
2019-05-23T07:14:42.985Z,18.29
2019-05-23T07:15:43.069Z,18.50
2019-05-23T07:16:43.259Z,18.77
2019-05-23T07:17:43.405Z,19.08
2019-05-23T07:18:43.707Z,19.30
2019-05-23T07:19:43.757Z,19.34
2019-05-23T07:20:44.569Z,19.39
2019-05-23T07:21:44.129Z,19.51
2019-05-23T07:22:44.322Z,19.66
2019-05-23T07:23:44.493Z,19.70
2019-05-23T07:24:57.566Z,19.95
2019-05-23T07:25:44.844Z,19.88
2019-05-23T07:26:45.021Z,20.32
2019-05-23T07:27:45.199Z,20.48
2019-05-23T07:28:45.373Z,20.75
2019-05-23T07:29:45.559Z,20.90
2019-05-23T07:30:45.764Z,20.99
2019-05-23T07:31:45.946Z,21.35
2019-05-23T07:32:46.177Z,21.46
2019-05-23T07:34:01.202Z,21.75
2019-05-23T07:34:46.467Z,21.89
2019-05-23T07:35:46.628Z,22.07
2019-05-23T07:36:46.804Z,22.29
2019-05-23T07:37:47.066Z,22.53
2019-05-23T07:38:47.109Z,22.81
2019-05-23T07:39:47.287Z,22.91
2019-05-23T07:40:47.480Z,23.02
2019-05-23T07:41:47.644Z,23.32
2019-05-23T07:42:47.821Z,23.41
2019-05-23T07:43:48.323Z,23.51
2019-05-23T07:44:48.751Z,23.73
2019-05-23T07:45:48.310Z,23.73
2019-05-23T07:46:48.505Z,23.78
2019-05-23T07:47:48.686Z,23.93
2019-05-23T07:48:48.865Z,24.11
2019-05-23T07:49:49.040Z,24.32
2019-05-23T07:50:49.218Z,24.48
2019-05-23T07:51:49.401Z,24.26
2019-05-23T07:52:49.844Z,24.13
2019-05-23T07:53:49.888Z,23.84
2019-05-23T07:54:49.861Z,24.01
2019-05-23T07:55:50.034Z,24.51
2019-05-23T07:56:50.201Z,24.74
2019-05-23T07:57:50.375Z,24.65
2019-05-23T07:58:50.551Z,24.81
2019-05-23T07:59:50.780Z,24.63
2019-05-23T08:00:50.949Z,24.57
2019-05-23T08:01:52.494Z,24.61
2019-05-23T08:02:51.363Z,24.89
2019-05-23T08:03:51.634Z,25.03
2019-05-23T08:04:51.747Z,25.33
2019-05-23T08:05:51.826Z,25.51
2019-05-23T08:06:52.029Z,25.58
2019-05-23T08:07:52.231Z,25.55
2019-05-23T08:08:52.980Z,25.73
2019-05-23T08:09:52.577Z,26.05
2019-05-23T08:10:52.736Z,26.18
2019-05-23T08:11:52.960Z,26.33
2019-05-23T08:12:53.323Z,26.48
2019-05-23T08:13:53.261Z,26.89
2019-05-23T08:14:53.564Z,26.96
2019-05-23T08:15:53.600Z,26.88
2019-05-23T08:16:53.823Z,26.84
2019-05-23T08:17:53.995Z,27.11
2019-05-23T08:18:54.175Z,27.29
2019-05-23T08:19:54.341Z,27.44
2019-05-23T08:20:54.530Z,27.51
2019-05-23T08:21:54.717Z,27.67
2019-05-23T08:22:54.896Z,28.14
2019-05-23T08:23:55.726Z,28.45
2019-05-23T08:24:55.263Z,28.19
2019-05-23T08:25:55.460Z,28.60
2019-05-23T08:26:55.632Z,28.69
2019-05-23T08:27:55.811Z,28.63
2019-05-23T08:29:23.710Z,28.74
2019-05-23T08:29:56.172Z,28.57
2019-05-23T08:30:56.347Z,28.86
2019-05-23T08:31:56.532Z,28.85
2019-05-23T08:32:56.806Z,28.86
2019-05-23T08:33:56.852Z,28.93
2019-05-23T08:34:57.101Z,28.91
2019-05-23T08:35:57.460Z,28.69
2019-05-23T08:36:57.466Z,28.60
2019-05-23T08:37:57.629Z,28.54
2019-05-23T08:38:57.798Z,28.60
2019-05-23T08:39:57.988Z,28.54
2019-05-23T08:40:58.167Z,28.54
2019-05-23T08:41:58.349Z,28.62
2019-05-23T08:42:58.536Z,28.70
2019-05-23T08:43:58.725Z,28.75
2019-05-23T08:44:58.924Z,28.89
2019-05-23T08:45:59.569Z,29.05
2019-05-23T08:46:59.291Z,29.13
2019-05-23T08:47:59.470Z,29.10
2019-05-23T08:48:59.646Z,29.10
2019-05-23T08:49:59.822Z,29.14
2019-05-23T08:51:00.024Z,29.14
2019-05-23T08:52:00.185Z,29.39
2019-05-23T08:53:00.362Z,28.89
2019-05-23T08:54:00.565Z,28.85
2019-05-23T08:55:00.756Z,28.91
2019-05-23T08:56:00.931Z,28.76
2019-05-23T08:57:01.134Z,28.60
2019-05-23T08:58:01.323Z,28.56
2019-05-23T08:59:01.506Z,28.56
2019-05-23T09:00:01.692Z,28.81
2019-05-23T09:01:01.871Z,29.10
2019-05-23T09:02:02.044Z,28.86
2019-05-23T09:03:02.239Z,28.78
2019-05-23T09:04:02.438Z,28.84
2019-05-23T09:05:06.051Z,29.01
2019-05-23T09:06:02.774Z,29.05
2019-05-23T09:07:02.986Z,29.05
2019-05-23T09:08:03.143Z,29.32
2019-05-23T09:09:03.430Z,29.53
2019-05-23T09:10:03.501Z,29.49
2019-05-23T09:11:03.730Z,29.53
2019-05-23T09:12:03.884Z,29.56
2019-05-23T09:13:04.188Z,29.72
2019-05-23T09:14:04.241Z,29.79
2019-05-23T09:15:04.659Z,29.68
2019-05-23T09:16:04.863Z,29.53
2019-05-23T09:17:04.825Z,29.56
2019-05-23T09:18:05.025Z,29.13
2019-05-23T09:19:05.202Z,29.56
2019-05-23T09:20:05.364Z,29.44
2019-05-23T09:21:05.543Z,29.65
2019-05-23T09:22:05.725Z,29.63
2019-05-23T09:23:06.153Z,29.82
2019-05-23T09:24:06.047Z,29.97
2019-05-23T09:25:06.245Z,30.12
2019-05-23T09:26:06.432Z,30.25
2019-05-23T09:27:06.607Z,30.35
2019-05-23T09:28:06.793Z,30.46
2019-05-23T09:29:06.976Z,30.91
2019-05-23T09:30:07.150Z,31.27
2019-05-23T09:31:07.430Z,31.17
2019-05-23T09:32:07.555Z,31.47
2019-05-23T09:33:07.724Z,31.81
2019-05-23T09:34:07.929Z,31.80
2019-05-23T09:35:20.530Z,31.76
2019-05-23T09:36:08.301Z,31.69
2019-05-23T09:37:08.485Z,31.27
2019-05-23T09:38:08.671Z,31.29
2019-05-23T09:39:08.871Z,31.58
2019-05-23T09:40:09.020Z,31.76
2019-05-23T09:41:09.209Z,32.30
2019-05-23T09:42:12.031Z,32.55
2019-05-23T09:43:09.585Z,31.89
2019-05-23T09:44:09.767Z,32.03
2019-05-23T09:45:09.953Z,31.80
2019-05-23T09:46:10.132Z,32.11
2019-05-23T09:47:10.556Z,32.01
2019-05-23T09:48:10.800Z,32.36
2019-05-23T09:49:11.530Z,32.63
2019-05-23T09:50:11.088Z,32.67
2019-05-23T09:51:11.057Z,32.78
2019-05-23T09:52:11.661Z,31.80
2019-05-23T09:53:11.427Z,31.84
2019-05-23T09:54:11.625Z,32.04
2019-05-23T09:55:11.803Z,32.04
2019-05-23T09:56:12.207Z,32.07
2019-05-23T09:57:13.371Z,31.49
2019-05-23T09:58:12.386Z,31.14
2019-05-23T09:59:12.525Z,30.81
2019-05-23T10:00:13.501Z,30.12
2019-05-23T10:01:14.447Z,29.35
2019-05-23T10:02:14.254Z,28.98
2019-05-23T10:03:15.228Z,29.76
2019-05-23T10:04:14.540Z,29.60
2019-05-23T10:05:14.701Z,29.07
2019-05-23T10:06:14.617Z,28.52
2019-05-23T10:07:14.382Z,28.00
2019-05-23T10:08:14.001Z,27.47
2019-05-23T10:09:14.173Z,26.96
2019-05-23T10:10:14.347Z,26.51
2019-05-23T10:11:14.540Z,25.98
2019-05-23T10:12:14.933Z,25.60
2019-05-23T10:13:15.254Z,25.18
2019-05-23T10:14:15.079Z,25.10
2019-05-23T10:15:15.259Z,25.01
2019-05-23T10:16:15.440Z,24.78
2019-05-23T10:17:15.617Z,24.80
2019-05-23T10:18:15.780Z,25.07
2019-05-23T10:19:16.142Z,25.66
2019-05-23T10:20:16.152Z,26.96
2019-05-23T10:21:16.313Z,28.15
2019-05-23T10:22:16.475Z,28.81
2019-05-23T10:23:16.656Z,29.63
2019-05-23T10:24:16.841Z,30.37
2019-05-23T10:25:17.025Z,30.23
2019-05-23T10:26:17.205Z,30.66
2019-05-23T10:27:17.384Z,29.97
2019-05-23T10:28:17.640Z,29.68
2019-05-23T10:29:17.750Z,29.17
2019-05-23T10:30:17.916Z,29.78
2019-05-23T10:31:18.100Z,30.34
2019-05-23T10:32:18.282Z,30.99
2019-05-23T10:33:18.456Z,31.56
2019-05-23T10:34:18.638Z,31.62
2019-05-23T10:35:18.836Z,31.27
2019-05-23T10:36:18.992Z,31.24
2019-05-23T10:37:19.165Z,31.43
2019-05-23T10:38:19.349Z,31.69
2019-05-23T10:39:19.529Z,32.15
2019-05-23T10:40:19.703Z,31.97
2019-05-23T10:41:19.929Z,31.99
2019-05-23T10:42:20.064Z,31.76
2019-05-23T10:43:20.235Z,31.55
2019-05-23T10:44:20.412Z,31.92
2019-05-23T10:45:20.587Z,31.90
2019-05-23T10:46:20.782Z,31.99
2019-05-23T10:47:20.951Z,32.09
2019-05-23T10:48:21.201Z,31.99
2019-05-23T10:49:21.321Z,31.27
2019-05-23T10:50:21.514Z,30.61
2019-05-23T10:51:21.685Z,29.53
2019-05-23T10:52:21.872Z,28.81
2019-05-23T10:53:22.085Z,28.52
2019-05-23T10:54:22.265Z,28.01
2019-05-23T10:55:22.459Z,27.71
2019-05-23T10:56:22.629Z,27.17
2019-05-23T10:57:23.246Z,26.83
2019-05-23T10:58:22.935Z,26.55
2019-05-23T10:59:23.125Z,26.13
2019-05-23T11:00:23.300Z,26.43
2019-05-23T11:01:23.499Z,27.52
2019-05-23T11:02:26.891Z,28.45
2019-05-23T11:03:23.842Z,28.91
2019-05-23T11:04:24.027Z,29.54
2019-05-23T11:05:24.237Z,29.94
2019-05-23T11:06:24.422Z,30.12
2019-05-23T11:07:24.600Z,30.51
2019-05-23T11:08:28.949Z,30.88
2019-05-23T11:09:37.462Z,31.00
2019-05-23T11:10:25.150Z,31.21
2019-05-23T11:11:25.365Z,31.39
2019-05-23T11:12:25.502Z,31.64
2019-05-23T11:13:25.684Z,32.04
2019-05-23T11:14:25.862Z,32.22
2019-05-23T11:15:26.042Z,32.27
2019-05-23T11:16:26.225Z,32.58
2019-05-23T11:17:26.400Z,32.60
2019-05-23T11:18:26.597Z,32.71
2019-05-23T11:19:26.758Z,32.48
2019-05-23T11:20:26.937Z,32.16
2019-05-23T11:21:27.116Z,32.12
2019-05-23T11:22:27.292Z,31.73
2019-05-23T11:23:27.477Z,31.89
2019-05-23T11:24:27.697Z,31.70
2019-05-23T11:25:27.845Z,31.33
2019-05-23T11:26:28.028Z,31.39
2019-05-23T11:27:28.207Z,30.91
2019-05-23T11:28:28.385Z,30.47
2019-05-23T11:29:28.565Z,29.56
2019-05-23T11:30:28.742Z,29.31
2019-05-23T11:31:28.925Z,29.34
2019-05-23T11:32:29.114Z,28.78
2019-05-23T11:33:29.282Z,28.39
2019-05-23T11:34:29.465Z,28.08
2019-05-23T11:35:29.643Z,27.82
2019-05-23T11:36:35.481Z,28.12
2019-05-23T11:37:30.006Z,28.33
2019-05-23T11:38:30.189Z,28.11
2019-05-23T11:39:30.369Z,28.10
2019-05-23T11:40:33.549Z,28.26
2019-05-23T11:41:30.729Z,28.11
2019-05-23T11:42:30.932Z,28.01
2019-05-23T11:43:31.088Z,28.08
2019-05-23T11:44:31.269Z,28.08
2019-05-23T11:45:31.447Z,27.85
2019-05-23T11:46:31.643Z,27.58
2019-05-23T11:47:32.264Z,27.12
2019-05-23T11:48:31.986Z,26.93
2019-05-23T11:49:32.165Z,26.74
2019-05-23T11:50:32.337Z,26.68
2019-05-23T11:51:32.812Z,26.56
2019-05-23T11:52:33.037Z,26.26
2019-05-23T11:53:32.867Z,25.93
2019-05-23T11:54:33.042Z,25.36
2019-05-23T11:55:33.242Z,25.41
2019-05-23T11:56:33.395Z,25.29
2019-05-23T11:57:37.246Z,25.33
2019-05-23T11:58:33.743Z,25.28
2019-05-23T11:59:33.910Z,25.26
2019-05-23T12:00:34.131Z,25.14
2019-05-23T12:01:34.266Z,25.33
2019-05-23T12:02:34.461Z,25.25
2019-05-23T12:03:34.863Z,25.22
2019-05-23T12:04:35.180Z,25.33
2019-05-23T12:05:34.964Z,25.17
2019-05-23T12:06:51.692Z,25.53
2019-05-23T12:07:35.323Z,25.36
2019-05-23T12:08:35.584Z,25.55
2019-05-23T12:09:35.649Z,25.69
2019-05-23T12:10:35.844Z,25.81
2019-05-23T12:11:41.279Z,26.02
2019-05-23T12:12:36.226Z,26.18
2019-05-23T12:13:36.396Z,26.18
2019-05-23T12:14:36.565Z,26.07
2019-05-23T12:15:36.749Z,26.07
2019-05-23T12:16:36.916Z,26.02
2019-05-23T12:17:39.048Z,25.96
2019-05-23T12:18:37.239Z,25.70
2019-05-23T12:19:37.541Z,25.70
2019-05-23T12:20:37.555Z,25.47
2019-05-23T12:21:37.734Z,25.35
2019-05-23T12:22:37.984Z,25.36
2019-05-23T12:23:38.088Z,25.35
2019-05-23T12:24:38.370Z,24.85
2019-05-23T12:25:38.436Z,25.03
2019-05-23T12:26:38.622Z,24.96
2019-05-23T12:27:38.794Z,25.07
2019-05-23T12:28:38.966Z,25.14
2019-05-23T12:29:39.181Z,25.28
2019-05-23T12:30:39.503Z,25.25
2019-05-23T12:31:39.582Z,25.26
2019-05-23T12:32:39.737Z,25.23
2019-05-23T12:33:39.925Z,25.25
2019-05-23T12:34:40.078Z,25.21
2019-05-23T12:35:40.257Z,25.11
2019-05-23T12:36:40.423Z,25.01
2019-05-23T12:37:40.814Z,25.18
2019-05-23T12:38:40.787Z,25.25
2019-05-23T12:39:40.946Z,25.29
2019-05-23T12:40:41.122Z,25.38
2019-05-23T12:41:41.303Z,25.38
2019-05-23T12:42:41.569Z,25.28
2019-05-23T12:43:41.686Z,25.43
2019-05-23T12:44:41.869Z,25.43
2019-05-23T12:45:42.037Z,25.38
2019-05-23T12:46:42.209Z,25.38
2019-05-23T12:47:42.391Z,25.38
2019-05-23T12:48:42.563Z,25.29
2019-05-23T12:49:42.740Z,25.26
2019-05-23T12:50:42.918Z,25.13
2019-05-23T12:51:43.091Z,25.14
2019-05-23T12:52:43.267Z,25.06
2019-05-23T12:53:43.445Z,25.01
2019-05-23T12:54:43.622Z,25.08